Time;durP1;ratioP1;P1;durP2;ratioP2;P2;SDS_P1;SDS_P2;PMS_P1;PMS_P2;Temp;Humidity;BMP_temperature;BMP_pressure;BME280_temperature;BME280_humidity;BME280_pressure;Samples;Min_cycle;Max_cycle;Signal;HPM_P1;HPM_P2
2022/07/31 00:00:53;;;;;;;;;;;;;;;17.19;86.44;101559.13;10400512;28;19929;-74
2022/07/31 00:05:53;;;;;;;;;;;;;;;17.02;87.34;101560.38;10400469;28;19948;-74
2022/07/31 00:10:53;;;;;;;;;;;;;;;16.91;87.37;101553.78;10382544;28;19925;-75
2022/07/31 00:15:53;;;;;;;;;;;;;;;16.76;86.97;101548.91;10399910;28;19917;-74
2022/07/31 00:20:54;;;;;;;;;;;;;;;16.64;88.76;101557.31;10383158;28;19920;-74
2022/07/31 00:25:54;;;;;;;;;;;;;;;16.54;88.48;101548.19;10399524;28;20388;-74
2022/07/31 00:30:55;;;;;;;;;;;;;;;16.52;88.19;101547.25;10381826;28;19917;-74
2022/07/31 00:35:55;;;;;;;;;;;;;;;16.61;88.69;101545.75;10399828;28;19923;-74
2022/07/31 00:40:55;;;;;;;;;;;;;;;16.59;87.72;101537.78;10400131;28;19924;-74
2022/07/31 00:45:56;;;;;;;;;;;;;;;16.59;87.92;101543.97;10398963;28;19967;-74
2022/07/31 00:50:57;;;;;;;;;;;;;;;16.62;87.54;101519.38;10399079;28;20436;-73
2022/07/31 00:55:57;;;;;;;;;;;;;;;16.63;87.21;101522.94;10385477;28;19966;-73
2022/07/31 01:00:57;;;;;;;;;;;;;;;16.70;87.27;101528.44;10389201;28;20349;-74
2022/07/31 01:05:58;;;;;;;;;;;;;;;16.74;87.54;101526.81;10405925;28;19921;-74
2022/07/31 01:11:01;;;;;;;;;;;;;;;16.69;87.92;101537.22;10406478;28;19917;-74
2022/07/31 01:16:02;;;;;;;;;;;;;;;16.85;86.97;101535.09;10388063;28;19917;-74
2022/07/31 01:21:03;;;;;;;;;;;;;;;16.86;86.26;101535.16;10388254;28;19921;-74
2022/07/31 01:26:16;;;;;;;;;;;;;;;16.82;86.96;101519.13;10387496;28;19960;-74
2022/07/31 01:31:18;;;;;;;;;;;;;;;16.78;86.24;101525.16;10388835;28;19924;-74
2022/07/31 01:36:19;;;;;;;;;;;;;;;16.68;87.01;101529.25;10386498;28;19933;-74
2022/07/31 01:41:20;;;;;;;;;;;;;;;16.56;87.28;101521.81;10387399;28;20345;-74
2022/07/31 01:46:20;;;;;;;;;;;;;;;16.58;87.04;101525.41;10387810;28;20388;-74
2022/07/31 01:51:20;;;;;;;;;;;;;;;16.61;86.56;101519.34;10386778;28;19920;-74
2022/07/31 01:56:21;;;;;;;;;;;;;;;16.98;82.40;101516.16;10404232;28;19947;-74
2022/07/31 02:01:21;;;;;;;;;;;;;;;17.01;82.69;101515.38;10386376;28;19948;-74
2022/07/31 02:06:22;;;;;;;;;;;;;;;17.05;80.92;101511.97;10386211;28;19927;-74
2022/07/31 02:11:22;;;;;;;;;;;;;;;17.05;80.51;101511.97;10386221;28;19923;-74
2022/07/31 02:16:23;;;;;;;;;;;;;;;17.08;81.13;101519.09;10385306;28;20353;-75
2022/07/31 02:21:24;;;;;;;;;;;;;;;17.11;80.29;101511.25;10405432;28;19925;-74
2022/07/31 02:26:25;;;;;;;;;;;;;;;17.00;82.21;101514.47;10369031;28;20023;-74
2022/07/31 02:31:25;;;;;;;;;;;;;;;16.94;81.82;101522.16;10385710;28;19939;-74
2022/07/31 02:36:26;;;;;;;;;;;;;;;16.73;82.78;101519.75;10385191;28;19995;-74
2022/07/31 02:41:26;;;;;;;;;;;;;;;16.55;83.20;101523.56;10385195;28;20357;-74
2022/07/31 02:46:27;;;;;;;;;;;;;;;16.49;83.89;101518.09;10402598;28;19924;-74
2022/07/31 02:51:27;;;;;;;;;;;;;;;16.46;84.51;101528.53;10384552;28;19925;-75
2022/07/31 02:56:27;;;;;;;;;;;;;;;16.39;85.35;101527.44;10384497;28;19917;-74
2022/07/31 03:01:28;;;;;;;;;;;;;;;16.33;84.16;101527.22;10384295;28;19921;-75
2022/07/31 03:06:28;;;;;;;;;;;;;;;16.36;82.69;101529.06;10367539;28;19921;-74
2022/07/31 03:11:28;;;;;;;;;;;;;;;16.37;82.31;101537.03;10400243;28;19923;-74
2022/07/31 03:16:29;;;;;;;;;;;;;;;16.45;82.40;101526.75;10384691;28;19931;-75
2022/07/31 03:21:29;;;;;;;;;;;;;;;16.47;81.57;101524.16;10382777;28;20011;-75
2022/07/31 03:26:29;;;;;;;;;;;;;;;16.52;80.63;101517.28;10383154;28;20423;-74
2022/07/31 03:31:30;;;;;;;;;;;;;;;16.44;82.16;101506.47;10382684;28;19917;-75
2022/07/31 03:36:30;;;;;;;;;;;;;;;16.29;83.83;101509.47;10400316;28;19918;-76
2022/07/31 03:41:31;;;;;;;;;;;;;;;16.10;85.37;101506.19;10400208;28;19917;-77
2022/07/31 03:46:31;;;;;;;;;;;;;;;16.06;85.02;101512.19;10400242;28;19924;-76
2022/07/31 03:51:31;;;;;;;;;;;;;;;16.08;86.52;101510.50;10382863;28;19921;-75
2022/07/31 03:56:32;;;;;;;;;;;;;;;16.07;86.27;101505.19;10399973;28;19971;-76
2022/07/31 04:01:33;;;;;;;;;;;;;;;16.06;85.24;101508.69;10366785;28;19921;-74
2022/07/31 04:06:33;;;;;;;;;;;;;;;16.13;86.01;101518.63;10400113;28;19948;-75
2022/07/31 04:11:34;;;;;;;;;;;;;;;16.21;84.61;101519.78;10398713;28;19917;-75
2022/07/31 04:16:34;;;;;;;;;;;;;;;16.22;84.23;101518.03;10382667;28;19940;-76
2022/07/31 04:21:35;;;;;;;;;;;;;;;16.19;84.96;101521.47;10398880;28;19917;-76
2022/07/31 04:26:35;;;;;;;;;;;;;;;16.18;85.79;101521.41;10382972;28;19923;-75
2022/07/31 04:31:35;;;;;;;;;;;;;;;16.15;86.47;101524.84;10385660;28;19978;-76
2022/07/31 04:36:36;;;;;;;;;;;;;;;16.12;87.11;101522.09;10407134;28;19924;-76
2022/07/31 04:41:37;;;;;;;;;;;;;;;16.22;86.03;101523.31;10407219;28;20431;-76
2022/07/31 04:46:37;;;;;;;;;;;;;;;16.24;85.78;101522.53;10407763;28;19929;-75
2022/07/31 04:51:38;;;;;;;;;;;;;;;16.34;85.89;101520.19;10389224;28;20435;-76
2022/07/31 04:56:41;;;;;;;;;;;;;;;16.51;83.89;101524.31;10388535;28;20355;-75
2022/07/31 05:01:42;;;;;;;;;;;;;;;16.65;83.24;101527.41;10389984;28;20395;-76
2022/07/31 05:06:44;;;;;;;;;;;;;;;16.88;82.41;101525.53;10380494;28;19932;-76
2022/07/31 05:11:44;;;;;;;;;;;;;;;17.11;81.56;101521.84;10382631;28;20369;-76
2022/07/31 05:16:45;;;;;;;;;;;;;;;17.29;79.51;101522.41;10405364;28;20003;-74
2022/07/31 05:21:45;;;;;;;;;;;;;;;17.53;78.58;101517.81;10384580;28;19921;-75
2022/07/31 05:26:45;;;;;;;;;;;;;;;17.60;78.29;101523.31;10387158;28;19917;-74
2022/07/31 05:31:46;;;;;;;;;;;;;;;17.63;78.75;101519.88;10403590;28;20385;-75
2022/07/31 05:36:46;;;;;;;;;;;;;;;17.82;77.86;101509.81;10405103;28;20291;-76
2022/07/31 05:41:47;;;;;;;;;;;;;;;17.83;77.94;101498.38;10404269;28;19940;-76
2022/07/31 05:46:48;;;;;;;;;;;;;;;17.81;78.43;101500.97;10403716;28;20293;-77
2022/07/31 05:51:52;;;;;;;;;;;;;;;17.76;78.95;101515.81;10404409;28;19923;-77
2022/07/31 05:56:53;;;;;;;;;;;;;;;17.72;79.87;101504.25;10402831;28;20327;-75
2022/07/31 06:01:53;;;;;;;;;;;;;;;17.69;80.55;101501.53;10403008;28;19921;-75
2022/07/31 06:06:53;;;;;;;;;;;;;;;17.71;81.34;101506.84;10403225;28;19921;-75
2022/07/31 06:11:54;;;;;;;;;;;;;;;17.68;81.19;101490.88;10403044;28;19917;-75
2022/07/31 06:16:54;;;;;;;;;;;;;;;17.72;80.65;101495.41;10402693;28;19917;-76
2022/07/31 06:22:02;;;;;;;;;;;;;;;17.68;81.53;101510.31;10383962;28;20360;-75
2022/07/31 06:27:03;;;;;;;;;;;;;;;17.76;81.65;101507.88;10385491;28;19924;-76
2022/07/31 06:32:03;;;;;;;;;;;;;;;17.88;81.21;101502.03;10383887;28;19916;-75
2022/07/31 06:37:03;;;;;;;;;;;;;;;17.91;81.05;101510.94;10383745;28;19921;-76
2022/07/31 06:42:04;;;;;;;;;;;;;;;17.98;81.62;101512.03;10401384;28;20276;-76
2022/07/31 06:47:04;;;;;;;;;;;;;;;18.23;80.66;101509.16;10383546;28;19921;-75
2022/07/31 06:52:04;;;;;;;;;;;;;;;18.55;80.74;101509.09;10383209;28;19927;-76
2022/07/31 06:57:05;;;;;;;;;;;;;;;18.73;79.98;101506.00;10389995;28;19933;-76
2022/07/31 07:02:05;;;;;;;;;;;;;;;18.63;79.84;101497.84;10378787;28;19921;-76
2022/07/31 07:07:06;;;;;;;;;;;;;;;18.58;82.33;101498.56;10376875;28;19921;-76
2022/07/31 07:12:06;;;;;;;;;;;;;;;18.79;80.99;101496.44;10377481;28;19925;-76
2022/07/31 07:17:07;;;;;;;;;;;;;;;19.05;80.49;101492.66;10379171;28;19956;-76
2022/07/31 07:22:07;;;;;;;;;;;;;;;19.19;80.65;101493.84;10377772;28;19921;-76
2022/07/31 07:27:07;;;;;;;;;;;;;;;19.39;78.46;101487.16;10370804;28;19913;-77
2022/07/31 07:32:08;;;;;;;;;;;;;;;19.45;78.45;101485.56;10356088;28;19975;-76
2022/07/31 07:37:09;;;;;;;;;;;;;;;19.52;79.47;101483.91;10356128;28;19995;-77
2022/07/31 07:42:09;;;;;;;;;;;;;;;19.79;78.50;101478.25;10362832;28;19975;-76
2022/07/31 07:47:09;;;;;;;;;;;;;;;20.20;75.14;101487.88;10359732;28;20340;-76
2022/07/31 07:52:10;;;;;;;;;;;;;;;21.22;73.12;101472.63;10365158;28;19929;-76
2022/07/31 07:57:13;;;;;;;;;;;;;;;23.05;65.18;101470.81;10361181;28;19921;-76
2022/07/31 08:02:14;;;;;;;;;;;;;;;23.40;64.01;101472.78;10389716;28;20293;-77
2022/07/31 08:07:15;;;;;;;;;;;;;;;23.11;65.81;101478.84;10370851;28;19932;-76
2022/07/31 08:12:15;;;;;;;;;;;;;;;23.10;63.35;101477.06;10392511;28;20365;-77
2022/07/31 08:17:15;;;;;;;;;;;;;;;23.45;62.89;101476.38;10426714;28;19924;-76
2022/07/31 08:22:16;;;;;;;;;;;;;;;23.73;60.16;101476.47;10406917;28;19921;-77
2022/07/31 08:27:29;;;;;;;;;;;;;;;23.54;63.35;101470.19;10412673;28;20024;-75
2022/07/31 08:32:30;;;;;;;;;;;;;;;23.37;61.89;101478.13;10394447;28;19944;-76
2022/07/31 08:37:30;;;;;;;;;;;;;;;22.72;64.52;101469.72;10407248;28;19917;-76
2022/07/31 08:42:31;;;;;;;;;;;;;;;21.88;66.38;101466.31;10411531;28;19921;-76
2022/07/31 08:47:32;;;;;;;;;;;;;;;21.96;68.81;101461.97;10407932;28;19928;-76
2022/07/31 08:52:32;;;;;;;;;;;;;;;24.30;59.12;101458.75;10390850;28;20011;-76
2022/07/31 08:57:34;;;;;;;;;;;;;;;27.46;51.85;101452.28;10373295;28;19943;-80
2022/07/31 09:02:34;;;;;;;;;;;;;;;27.84;49.08;101462.50;10401242;28;19963;-76
2022/07/31 09:07:34;;;;;;;;;;;;;;;27.19;52.59;101455.28;10426620;28;20004;-76
2022/07/31 09:12:35;;;;;;;;;;;;;;;26.59;53.72;101451.44;10422443;28;20408;-78
2022/07/31 09:17:35;;;;;;;;;;;;;;;25.41;55.15;101446.91;10384618;28;19991;-77
2022/07/31 09:22:35;;;;;;;;;;;;;;;25.64;56.05;101436.09;10404079;28;20059;-76
2022/07/31 09:27:36;;;;;;;;;;;;;;;25.74;55.08;101439.59;10402629;28;20067;-76
2022/07/31 09:32:36;;;;;;;;;;;;;;;25.28;56.86;101438.03;10344544;28;19984;-77
2022/07/31 09:37:38;;;;;;;;;;;;;;;25.64;56.45;101433.41;10373880;28;19935;-77
2022/07/31 09:42:42;;;;;;;;;;;;;;;25.44;57.63;101440.66;10372842;28;19929;-76
2022/07/31 09:47:43;;;;;;;;;;;;;;;25.31;56.39;101424.63;10350802;28;19921;-77
2022/07/31 09:52:43;;;;;;;;;;;;;;;24.97;57.08;101423.88;10383331;28;19924;-76
2022/07/31 09:57:55;;;;;;;;;;;;;;;25.16;57.54;101425.59;10401218;28;19924;-77
2022/07/31 10:02:55;;;;;;;;;;;;;;;25.72;56.33;101419.94;10339480;28;1273309;-77
2022/07/31 10:07:56;;;;;;;;;;;;;;;25.52;57.31;101425.47;10384219;28;19943;-77
2022/07/31 10:12:58;;;;;;;;;;;;;;;25.45;57.96;101424.59;10403041;28;19961;-77
2022/07/31 10:17:58;;;;;;;;;;;;;;;26.03;55.10;101427.78;10382686;28;20011;-77
2022/07/31 10:23:00;;;;;;;;;;;;;;;25.66;56.63;101425.34;10359942;28;19944;-77
2022/07/31 10:28:01;;;;;;;;;;;;;;;25.20;57.06;101431.84;10354357;28;19959;-76
2022/07/31 10:33:02;;;;;;;;;;;;;;;25.33;57.22;101428.19;10401789;28;20004;-79
2022/07/31 10:38:02;;;;;;;;;;;;;;;25.32;57.89;101421.06;10366958;28;20333;-79
2022/07/31 10:43:08;;;;;;;;;;;;;;;25.79;55.88;101420.81;10399785;28;19921;-77
2022/07/31 10:48:09;;;;;;;;;;;;;;;25.30;56.91;101424.63;10399536;28;19921;-77
2022/07/31 10:53:10;;;;;;;;;;;;;;;25.30;56.92;101408.56;10382249;28;19921;-77
2022/07/31 10:58:15;;;;;;;;;;;;;;;25.99;56.09;101415.28;10388176;28;19921;-76
2022/07/31 11:03:18;;;;;;;;;;;;;;;26.11;54.87;101411.63;10354230;28;19925;-76
2022/07/31 11:08:19;;;;;;;;;;;;;;;25.63;56.64;101386.09;10395485;28;20253;-76
2022/07/31 11:13:19;;;;;;;;;;;;;;;25.67;55.77;101400.34;10375479;28;19921;-76
2022/07/31 11:18:21;;;;;;;;;;;;;;;25.72;54.21;101395.84;10360032;28;19921;-78
2022/07/31 11:23:26;;;;;;;;;;;;;;;25.89;54.83;101382.31;10366600;28;20023;-77
2022/07/31 11:28:27;;;;;;;;;;;;;;;25.89;54.14;101390.34;10380189;28;19925;-79
2022/07/31 11:33:28;;;;;;;;;;;;;;;25.56;56.16;101383.44;10393936;28;19921;-76
2022/07/31 11:38:28;;;;;;;;;;;;;;;25.54;56.11;101385.25;10380638;28;20361;-78
2022/07/31 11:43:29;;;;;;;;;;;;;;;25.61;54.55;101371.81;10382015;28;19917;-75
2022/07/31 11:48:31;;;;;;;;;;;;;;;26.07;54.40;101375.03;10379450;28;19964;-75
2022/07/31 11:53:32;;;;;;;;;;;;;;;27.83;50.71;101363.03;10399672;28;20442;-75
2022/07/31 11:58:32;;;;;;;;;;;;;;;27.29;51.44;101372.78;10380048;28;19971;-76
2022/07/31 12:03:37;;;;;;;;;;;;;;;26.30;52.61;101361.41;10380901;28;19928;-75
2022/07/31 12:08:37;;;;;;;;;;;;;;;25.89;52.60;101365.31;10358610;28;19921;-75
2022/07/31 12:13:38;;;;;;;;;;;;;;;26.36;52.38;101357.78;10379740;28;20400;-76
2022/07/31 12:18:49;;;;;;;;;;;;;;;27.43;49.04;101355.56;10395829;28;19925;-78
2022/07/31 12:23:50;;;;;;;;;;;;;;;27.75;50.49;101360.47;10365323;28;20430;-79
2022/07/31 12:28:57;;;;;;;;;;;;;;;27.00;50.07;101349.00;10396105;28;19929;-80
2022/07/31 12:34:00;;;;;;;;;;;;;;;26.78;50.64;101354.59;10398573;28;20710;-80
2022/07/31 12:39:01;;;;;;;;;;;;;;;26.35;52.04;101359.56;10385404;28;20366;-76
2022/07/31 12:44:10;;;;;;;;;;;;;;;26.49;51.89;101340.66;10380112;28;20008;-76
2022/07/31 12:49:11;;;;;;;;;;;;;;;26.12;54.33;101340.09;10364304;28;19921;-77
2022/07/31 12:54:12;;;;;;;;;;;;;;;26.19;53.91;101344.53;10366833;28;20361;-77
2022/07/31 12:59:14;;;;;;;;;;;;;;;26.47;52.50;101342.47;10403675;28;19921;-78
2022/07/31 13:04:15;;;;;;;;;;;;;;;25.88;52.94;101334.97;10378823;28;19922;-76
2022/07/31 13:09:19;;;;;;;;;;;;;;;25.53;54.20;101330.78;10380074;28;19921;-75
2022/07/31 13:14:20;;;;;;;;;;;;;;;25.28;55.06;101336.25;10388664;28;19928;-75
2022/07/31 13:19:20;;;;;;;;;;;;;;;25.53;54.20;101332.53;10387596;28;19921;-76
2022/07/31 13:24:21;;;;;;;;;;;;;;;28.08;49.97;101319.56;10387774;28;20439;-76
2022/07/31 13:29:21;;;;;;;;;;;;;;;29.27;45.51;101314.44;10404254;28;20028;-76
2022/07/31 13:34:22;;;;;;;;;;;;;;;28.73;46.34;101311.13;10371715;28;19921;-76
2022/07/31 13:39:25;;;;;;;;;;;;;;;29.94;45.17;101309.25;10371323;28;19971;-75
2022/07/31 13:44:25;;;;;;;;;;;;;;;30.27;41.73;101302.09;10385421;28;19964;-76
2022/07/31 13:49:30;;;;;;;;;;;;;;;30.21;44.01;101295.97;10404852;28;20440;-76
2022/07/31 13:54:34;;;;;;;;;;;;;;;29.72;43.74;101302.63;10387049;28;19960;-76
2022/07/31 13:59:35;;;;;;;;;;;;;;;27.47;48.40;101300.88;10397275;28;20274;-76
2022/07/31 14:04:35;;;;;;;;;;;;;;;26.51;52.18;101301.25;10403448;28;19921;-76
2022/07/31 14:09:36;;;;;;;;;;;;;;;26.17;52.97;101308.78;10400848;28;19971;-76
2022/07/31 14:14:36;;;;;;;;;;;;;;;25.60;53.44;101308.38;10401570;28;19972;-76
2022/07/31 14:19:37;;;;;;;;;;;;;;;25.05;56.42;101306.94;10401940;28;19921;-76
2022/07/31 14:24:39;;;;;;;;;;;;;;;25.88;54.81;101294.75;10403254;28;19975;-76
2022/07/31 14:29:43;;;;;;;;;;;;;;;27.06;53.06;101287.16;10380220;28;19928;-76
2022/07/31 14:34:43;;;;;;;;;;;;;;;27.09;50.95;101288.00;10402008;28;19961;-76
2022/07/31 14:39:44;;;;;;;;;;;;;;;26.84;51.47;101279.38;10361448;28;19925;-76
2022/07/31 14:44:44;;;;;;;;;;;;;;;26.59;51.78;101282.38;10399084;28;20289;-77
2022/07/31 14:49:45;;;;;;;;;;;;;;;26.84;52.59;101278.53;10363029;28;19924;-77
2022/07/31 14:54:45;;;;;;;;;;;;;;;27.37;50.75;101271.47;10375772;28;19922;-76
2022/07/31 14:59:46;;;;;;;;;;;;;;;26.70;52.31;101273.28;10355590;28;19921;-77
2022/07/31 15:04:46;;;;;;;;;;;;;;;25.80;54.37;101280.53;10380623;28;20396;-76
2022/07/31 15:09:48;;;;;;;;;;;;;;;25.38;55.31;101263.88;10400967;28;19921;-76
2022/07/31 15:14:50;;;;;;;;;;;;;;;25.47;54.78;101266.50;10391312;28;19921;-75
2022/07/31 15:19:51;;;;;;;;;;;;;;;25.82;54.84;101262.63;10363856;28;20019;-77
2022/07/31 15:24:51;;;;;;;;;;;;;;;25.58;55.01;101270.00;10374637;28;20140;-76
2022/07/31 15:29:53;;;;;;;;;;;;;;;25.74;54.65;101260.00;10395668;28;20289;-78
2022/07/31 15:37:10;;;;;;;4.43;1.80;;;;;;;26.00;53.39;101248.13;10432086;27;20134;-74
2022/07/31 15:42:13;;;;;;;5.10;3.17;;;;;;;25.74;54.27;101245.72;10424771;28;20049;-74
2022/07/31 15:47:16;;;;;;;5.95;1.80;;;;;;;25.62;54.13;101249.41;10421714;28;20060;-75
2022/07/31 15:52:17;;;;;;;5.13;2.33;;;;;;;25.31;55.35;101247.84;10410833;28;20072;-75
2022/07/31 15:57:21;;;;;;;4.23;1.80;;;;;;;24.93;55.97;101249.00;10386339;28;20124;-75
2022/07/31 16:02:22;;;;;;;4.85;2.25;;;;;;;24.75;56.78;101245.53;10363986;28;20056;-75
2022/07/31 16:07:36;;;;;;;3.53;1.43;;;;;;;24.78;56.35;101234.81;10388980;28;20512;-75
2022/07/31 16:12:36;;;;;;;5.78;2.15;;;;;;;24.56;57.54;101244.69;10393696;28;20563;-76
2022/07/31 16:17:37;;;;;;;3.93;2.13;;;;;;;24.63;57.24;101250.91;10390602;28;20045;-76
2022/07/31 16:22:38;;;;;;;5.33;2.00;;;;;;;24.55;58.24;101240.22;10393507;28;20072;-76
2022/07/31 16:27:39;;;;;;;4.10;2.67;;;;;;;24.25;59.55;101258.19;10392855;28;20037;-75
2022/07/31 16:32:45;;;;;;;2.50;1.90;;;;;;;23.52;65.16;101262.69;10397440;28;20562;-75
2022/07/31 16:37:45;;;;;;;5.00;2.40;;;;;;;23.79;65.65;101250.22;10453682;28;20484;-75
2022/07/31 16:42:49;;;;;;;4.47;2.33;;;;;;;24.36;62.43;101252.81;10452835;28;20064;-75
2022/07/31 16:47:49;;;;;;;2.95;1.70;;;;;;;23.85;64.56;101231.50;10408785;28;20045;-77
2022/07/31 16:52:50;;;;;;;3.67;2.27;;;;;;;23.96;64.32;101239.53;10404319;28;20124;-77
2022/07/31 16:57:50;;;;;;;4.70;2.10;;;;;;;23.97;63.89;101238.63;10402980;28;20048;-77
2022/07/31 17:02:52;;;;;;;10.90;5.93;;;;;;;24.04;63.08;101238.63;10404039;28;20076;-75
2022/07/31 17:07:52;;;;;;;6.10;2.90;;;;;;;23.71;64.17;101237.75;10402022;28;20034;-75
2022/07/31 17:12:53;;;;;;;5.70;2.00;;;;;;;23.64;64.38;101232.44;10348539;28;20033;-76
2022/07/31 17:17:53;;;;;;;3.97;2.33;;;;;;;23.44;64.41;101230.66;10375762;28;20559;-74
2022/07/31 17:22:56;;;;;;;4.87;2.57;;;;;;;23.28;65.47;101227.09;10402753;28;20052;-76
2022/07/31 17:28:03;;;;;;;4.38;2.20;;;;;;;23.40;65.46;101239.56;10389337;28;20094;-75
2022/07/31 17:33:03;;;;;;;3.20;1.98;;;;;;;23.35;65.81;101230.66;10402841;28;20561;-76
2022/07/31 17:38:04;;;;;;;2.57;1.87;;;;;;;23.17;65.75;101237.75;10397031;28;20034;-76
2022/07/31 17:43:04;;;;;;;5.90;1.80;;;;;;;22.91;66.80;101243.00;10401230;28;20448;-75
2022/07/31 17:48:05;;;;;;;3.20;2.00;;;;;;;22.75;68.24;101261.66;10399948;28;20576;-80
2022/07/31 17:53:08;;;;;;;6.27;4.20;;;;;;;22.40;71.90;101263.28;10399547;28;20053;-76
2022/07/31 17:58:11;;;;;;;4.65;2.92;;;;;;;21.54;77.01;101284.84;10379337;28;20033;-77
2022/07/31 18:03:12;;;;;;;4.05;3.05;;;;;;;21.18;79.96;101295.16;10396838;28;20049;-77
2022/07/31 18:08:18;;;;;;;6.00;3.20;;;;;;;20.95;81.85;101294.88;10375625;28;20040;-77
2022/07/31 18:13:18;;;;;;;5.22;3.45;;;;;;;20.73;83.62;101296.38;10415098;28;20037;-76
2022/07/31 18:18:19;;;;;;;4.72;3.95;;;;;;;20.52;84.35;101305.88;10418188;28;20041;-76
2022/07/31 18:23:28;;;;;;;11.63;3.85;;;;;;;20.43;86.02;101311.94;10409546;28;20033;-77
2022/07/31 18:28:31;;;;;;;7.72;4.28;;;;;;;20.47;86.44;101315.53;10428378;28;20037;-75
2022/07/31 18:33:32;;;;;;;12.23;5.63;;;;;;;20.44;87.30;101326.13;10439023;28;20060;-76
2022/07/31 18:38:32;;;;;;;6.55;4.45;;;;;;;20.50;87.32;101323.56;10434938;28;20672;-76
2022/07/31 18:43:33;;;;;;;6.53;3.83;;;;;;;20.46;87.81;101322.59;10410383;28;20044;-77
2022/07/31 18:48:34;;;;;;;7.82;5.13;;;;;;;20.38;88.06;101327.84;10388108;28;20059;-76
2022/07/31 18:53:37;;;;;;;7.50;5.17;;;;;;;20.37;88.34;101334.03;10417148;28;20044;-76
2022/07/31 18:58:42;;;;;;;9.50;4.97;;;;;;;20.32;88.67;101334.81;10413937;28;20369;-77
2022/07/31 19:03:42;;;;;;;10.85;4.70;;;;;;;20.23;89.17;101339.13;10431232;28;20041;-77
2022/07/31 19:08:48;;;;;;;14.80;6.75;;;;;;;20.21;89.47;101338.19;10433131;28;20052;-77
2022/07/31 19:13:49;;;;;;;11.95;7.43;;;;;;;20.18;89.92;101343.47;10360993;28;20119;-77
2022/07/31 19:18:49;;;;;;;9.32;6.68;;;;;;;20.08;90.65;101342.44;10391216;28;20071;-76
2022/07/31 19:23:50;;;;;;;16.88;8.27;;;;;;;19.97;91.62;101348.44;10391285;28;20040;-78
2022/07/31 19:28:50;;;;;;;15.27;6.88;;;;;;;19.88;92.12;101352.69;10391003;28;20041;-75
2022/07/31 19:33:51;;;;;;;28.15;20.08;;;;;;;19.81;92.67;101367.66;10392582;28;20033;-76
2022/07/31 19:38:51;;;;;;;22.73;14.68;;;;;;;19.76;92.22;101366.66;10345798;28;20538;-76
2022/07/31 19:43:52;;;;;;;11.32;7.43;;;;;;;19.70;90.92;101377.19;10375505;28;20154;-78
2022/07/31 19:48:55;;;;;;;10.65;6.70;;;;;;;19.55;91.70;101384.88;10362871;28;20045;-76
2022/07/31 19:53:56;;;;;;;11.95;6.28;;;;;;;19.36;92.95;101387.16;10371398;28;20042;-76
2022/07/31 19:58:57;;;;;;;8.00;5.75;;;;;;;19.15;93.84;101388.53;10366599;28;20111;-77
2022/07/31 20:03:57;;;;;;;10.32;6.57;;;;;;;19.09;94.32;101393.69;10386053;28;20373;-76
2022/07/31 20:08:58;;;;;;;7.22;5.03;;;;;;;19.03;94.84;101399.75;10371462;28;20470;-77
2022/07/31 20:13:58;;;;;;;10.23;6.22;;;;;;;18.99;95.11;101391.72;10394773;28;20051;-77
2022/07/31 20:19:02;;;;;;;6.32;4.90;;;;;;;18.96;95.57;101399.56;10419811;28;20128;-76
2022/07/31 20:24:02;;;;;;;10.38;5.38;;;;;;;18.94;95.83;101402.19;10425119;28;20044;-77
2022/07/31 20:29:03;;;;;;;7.65;5.68;;;;;;;18.95;95.97;101395.13;10433973;28;20385;-77
2022/07/31 20:34:04;;;;;;;7.50;5.85;;;;;;;18.96;95.76;101395.16;10450512;28;20044;-77
2022/07/31 20:39:04;;;;;;;11.60;5.82;;;;;;;19.03;95.44;101399.75;10442054;28;20048;-77
2022/07/31 20:44:05;;;;;;;7.57;5.55;;;;;;;19.03;95.02;101399.75;10445111;28;20049;-77
2022/07/31 20:49:05;;;;;;;9.25;6.40;;;;;;;19.04;95.36;101393.59;10426977;28;20063;-77
2022/07/31 20:54:06;;;;;;;9.43;6.32;;;;;;;19.07;94.83;101403.38;10424777;28;20036;-76
2022/07/31 20:59:06;;;;;;;9.45;5.93;;;;;;;19.05;94.97;101405.09;10443408;28;20540;-77
2022/07/31 21:04:08;;;;;;;9.43;4.88;;;;;;;19.01;95.25;101409.44;10426362;28;20488;-78
2022/07/31 21:09:09;;;;;;;10.60;4.95;;;;;;;19.02;94.52;101413.88;10438552;28;20053;-78
2022/07/31 21:14:09;;;;;;;11.98;5.28;;;;;;;19.07;93.82;101419.31;10415867;28;20065;-77
2022/07/31 21:19:10;;;;;;;6.53;4.70;;;;;;;19.08;93.30;101411.34;10428070;28;20039;-77
2022/07/31 21:24:10;;;;;;;6.72;4.10;;;;;;;19.18;91.96;101419.50;10420223;28;20041;-77
2022/07/31 21:29:11;;;;;;;6.55;3.92;;;;;;;19.20;89.93;101415.13;10424197;28;20056;-77
2022/07/31 21:34:12;;;;;;;6.47;3.10;;;;;;;19.24;88.74;101411.69;10403628;28;20114;-77
2022/07/31 21:39:13;;;;;;;5.82;2.85;;;;;;;19.29;87.17;101417.09;10424238;28;20071;-76
2022/07/31 21:44:13;;;;;;;6.70;3.40;;;;;;;19.35;85.94;101414.56;10403044;28;20040;-77
2022/07/31 21:49:14;;;;;;;5.90;3.08;;;;;;;19.36;84.92;101421.66;10423963;28;20048;-77
2022/07/31 21:54:16;;;;;;;5.38;2.28;;;;;;;19.36;85.10;101411.94;10423451;28;20041;-77
2022/07/31 21:59:17;;;;;;;;;;;;;;;19.33;85.30;101419.81;10441020;28;20036;-76
2022/07/31 22:04:17;;;;;;;3.07;2.50;;;;;;;19.26;85.57;101425.00;10424484;28;19916;-76
2022/07/31 22:09:23;;;;;;;5.22;2.58;;;;;;;19.19;85.80;101424.88;10423604;28;20424;-78
2022/07/31 22:14:23;;;;;;;5.65;2.72;;;;;;;19.25;85.22;101433.81;10421929;28;20083;-77
2022/07/31 22:19:24;;;;;;;4.45;2.58;;;;;;;19.30;84.48;101437.47;10421725;28;20124;-76
2022/07/31 22:24:25;;;;;;;5.55;3.47;;;;;;;19.18;86.36;101436.34;10415645;28;20049;-76
2022/07/31 22:29:25;;;;;;;5.00;3.28;;;;;;;19.07;87.33;101427.25;10429735;28;20122;-76
2022/07/31 22:34:26;;;;;;;5.82;3.50;;;;;;;18.92;88.04;101439.28;10404708;28;20506;-77
2022/07/31 22:39:27;;;;;;;9.48;4.72;;;;;;;18.94;88.24;101447.25;10410672;28;20037;-76
2022/07/31 22:44:27;;;;;;;5.00;3.53;;;;;;;18.86;88.81;101436.50;10405499;28;20079;-76
2022/07/31 22:49:28;;;;;;;5.55;3.40;;;;;;;18.82;89.11;101445.25;10391478;28;20107;-76
2022/07/31 22:54:28;;;;;;;5.35;3.97;;;;;;;18.72;89.72;101449.44;10404329;28;20442;-77
2022/07/31 22:59:29;;;;;;;5.57;4.53;;;;;;;18.68;90.22;101450.22;10439064;28;20067;-77
2022/07/31 23:04:29;;;;;;;5.05;3.90;;;;;;;18.63;90.89;101451.84;10418095;28;20432;-77
2022/07/31 23:09:30;;;;;;;7.18;4.57;;;;;;;18.52;91.35;101454.28;10437126;28;20135;-77
2022/07/31 23:14:30;;;;;;;5.97;4.15;;;;;;;18.29;92.25;101453.69;10404589;28;20044;-77
2022/07/31 23:19:31;;;;;;;9.35;4.93;;;;;;;18.07;94.08;101461.09;10405033;28;20509;-76
2022/07/31 23:24:32;;;;;;;11.57;6.25;;;;;;;17.93;95.40;101457.13;10410975;28;20053;-76
2022/07/31 23:29:36;;;;;;;8.30;6.13;;;;;;;17.79;96.50;101460.31;10403062;28;20043;-77
2022/07/31 23:34:36;;;;;;;8.45;5.25;;;;;;;17.69;97.74;101455.63;10430565;28;20041;-76
2022/07/31 23:39:37;;;;;;;10.43;5.78;;;;;;;17.64;98.20;101454.59;10419423;28;20034;-76
2022/07/31 23:44:37;;;;;;;9.90;5.57;;;;;;;17.61;98.44;101455.41;10438627;28;20037;-76
2022/07/31 23:49:38;;;;;;;10.50;5.57;;;;;;;17.65;99.59;101451.09;10415833;28;20033;-77
2022/07/31 23:54:38;;;;;;;6.60;5.43;;;;;;;17.70;99.54;101446.81;10422373;28;20053;-76
2022/07/31 23:59:39;;;;;;;9.73;5.65;;;;;;;17.76;98.93;101450.53;10430307;28;20106;-76
